Time;durP1;ratioP1;P1;durP2;ratioP2;P2;SDS_P1;SDS_P2;PMS_P1;PMS_P2;Temp;Humidity;BMP_temperature;BMP_pressure;BME280_temperature;BME280_humidity;BME280_pressure;Samples;Min_cycle;Max_cycle;Signal;HPM_P1;HPM_P2
2023/05/17 00:00:33;;;;;;;12.17;5.20;;;9.80;72.80;;;;;;5092291;28;20406;-73
2023/05/17 00:02:59;;;;;;;11.80;4.90;;;9.80;72.80;;;;;;5091836;28;20382;-73
2023/05/17 00:05:24;;;;;;;10.03;4.80;;;9.80;73.30;;;;;;5092269;28;20417;-74
2023/05/17 00:07:50;;;;;;;11.23;5.10;;;9.70;73.50;;;;;;5092256;28;20465;-72
2023/05/17 00:10:16;;;;;;;13.03;5.20;;;9.70;74.80;;;;;;5092187;28;20409;-72
2023/05/17 00:12:41;;;;;;;13.60;4.70;;;9.80;75.30;;;;;;5092382;28;20386;-72
2023/05/17 00:15:07;;;;;;;13.67;4.30;;;9.70;75.70;;;;;;5092860;28;20453;-74
2023/05/17 00:17:33;;;;;;;11.00;4.43;;;9.70;76.00;;;;;;5092694;28;20382;-73
2023/05/17 00:19:58;;;;;;;9.73;4.93;;;9.60;77.60;;;;;;5092500;28;20933;-73
2023/05/17 00:22:24;;;;;;;13.60;4.93;;;9.60;77.80;;;;;;5091894;28;20858;-73
2023/05/17 00:24:50;;;;;;;13.95;5.13;;;9.70;78.00;;;;;;5092461;28;20374;-73
2023/05/17 00:27:15;;;;;;;13.00;5.20;;;9.60;78.50;;;;;;5093105;28;20401;-73
2023/05/17 00:29:41;;;;;;;16.27;5.10;;;9.50;79.80;;;;;;5092630;28;20746;-73
2023/05/17 00:32:06;;;;;;;10.67;5.10;;;9.40;82.30;;;;;;5091220;28;21065;-72
2023/05/17 00:34:32;;;;;;;11.40;5.40;;;9.40;82.70;;;;;;5092153;28;20374;-72
2023/05/17 00:36:57;;;;;;;13.73;5.60;;;9.40;83.10;;;;;;5091906;28;20392;-73
2023/05/17 00:39:23;;;;;;;12.80;5.40;;;9.40;83.20;;;;;;5092044;28;20434;-73
2023/05/17 00:41:48;;;;;;;12.33;5.30;;;9.40;82.60;;;;;;5092772;28;20377;-73
2023/05/17 00:44:14;;;;;;;13.23;5.50;;;9.40;82.80;;;;;;5092682;28;20382;-73
2023/05/17 00:46:40;;;;;;;13.20;5.10;;;9.30;83.40;;;;;;5093235;28;20382;-73
2023/05/17 00:49:06;;;;;;;13.38;6.10;;;9.30;84.30;;;;;;5074448;28;20382;-73
2023/05/17 00:51:33;;;;;;;16.08;6.40;;;9.20;84.90;;;;;;5092295;28;20496;-72
2023/05/17 00:53:59;;;;;;;16.08;6.05;;;9.30;85.30;;;;;;5092575;28;20394;-72
2023/05/17 00:56:25;;;;;;;18.73;6.32;;;9.20;85.10;;;;;;5074964;28;20390;-72
2023/05/17 00:58:51;;;;;;;19.40;5.97;;;9.10;85.90;;;;;;5092829;28;20837;-73
2023/05/17 01:01:17;;;;;;;15.02;6.10;;;9.20;86.10;;;;;;5092184;28;20389;-71
2023/05/17 01:03:43;;;;;;;15.80;6.40;;;9.10;86.70;;;;;;5092514;28;20389;-71
2023/05/17 01:06:09;;;;;;;17.85;6.68;;;9.10;87.00;;;;;;5092201;28;20408;-73
2023/05/17 01:08:34;;;;;;;17.73;6.30;;;9.10;86.90;;;;;;5092350;28;20374;-72
2023/05/17 01:11:13;;;;;;;17.57;6.33;;;9.10;86.80;;;;;;5091662;28;20462;-73
2023/05/17 01:13:57;;;;;;;16.80;6.22;;;9.10;87.20;;;;;;5092646;28;20814;-74
2023/05/17 01:16:35;;;;;;;16.50;5.75;;;9.10;87.50;;;;;;5091618;28;20468;-72
2023/05/17 01:19:28;;;;;;;18.47;7.00;;;9.10;88.50;;;;;;5091453;28;20439;-72
2023/05/17 01:22:31;;;;;;;18.75;6.60;;;9.10;88.60;;;;;;5090410;28;20786;-72
2023/05/17 01:25:09;;;;;;;15.23;6.30;;;9.00;89.00;;;;;;5090996;28;20407;-72
2023/05/17 01:27:36;;;;;;;18.40;6.80;;;8.90;90.10;;;;;;5091175;28;20426;-72
2023/05/17 01:30:02;;;;;;;20.10;7.03;;;8.80;92.50;;;;;;5091014;28;20383;-72
2023/05/17 01:32:29;;;;;;;15.10;6.75;;;8.80;93.50;;;;;;5090422;28;20403;-72
2023/05/17 01:34:55;;;;;;;17.50;7.38;;;8.80;92.40;;;;;;5090659;28;20386;-72
2023/05/17 01:37:20;;;;;;;17.20;6.63;;;8.70;94.30;;;;;;5090805;28;20469;-72
2023/05/17 01:39:46;;;;;;;15.33;6.60;;;8.70;95.20;;;;;;5072790;28;20951;-73
2023/05/17 01:42:25;;;;;;;25.13;7.30;;;8.90;93.00;;;;;;5072289;28;20830;-73
2023/05/17 01:45:12;;;;;;;16.70;7.10;;;8.90;91.50;;;;;;5093651;28;20382;-73
2023/05/17 01:48:12;;;;;;;16.83;6.28;;;8.80;92.10;;;;;;5096772;28;20377;-73
2023/05/17 01:50:39;;;;;;;24.92;7.30;;;8.80;93.60;;;;;;5040607;28;20789;-72
2023/05/17 01:53:09;;;;;;;19.23;7.50;;;8.80;93.60;;;;;;5096969;28;20465;-72
2023/05/17 01:55:51;;;;;;;21.35;7.72;;;8.70;93.50;;;;;;5097231;28;20385;-72
2023/05/17 01:58:20;;;;;;;17.80;7.60;;;8.50;96.10;;;;;;5096357;28;21145;-72
2023/05/17 02:00:47;;;;;;;18.95;7.03;;;8.50;98.10;;;;;;5095164;28;20455;-73
2023/05/17 02:03:19;;;;;;;16.73;7.30;;;8.70;95.90;;;;;;5094266;28;20378;-73
2023/05/17 02:05:45;;;;;;;22.10;7.13;;;8.70;94.50;;;;;;5094968;28;20385;-73
2023/05/17 02:08:11;;;;;;;19.25;6.80;;;8.80;93.50;;;;;;5094758;28;20382;-72
2023/05/17 02:10:36;;;;;;;18.77;7.13;;;8.80;91.90;;;;;;5095359;28;20393;-72
2023/05/17 02:13:02;;;;;;;14.70;6.70;;;8.80;91.20;;;;;;5094320;28;20373;-72
2023/05/17 02:15:28;;;;;;;17.93;7.40;;;8.80;91.30;;;;;;5094864;28;20984;-72
2023/05/17 02:17:53;;;;;;;18.83;7.40;;;8.70;92.70;;;;;;5104901;28;20382;-73
2023/05/17 02:20:19;;;;;;;17.67;8.10;;;8.70;93.40;;;;;;5108878;28;20398;-72
2023/05/17 02:22:45;;;;;;;17.63;7.18;;;8.70;94.40;;;;;;5109006;28;20385;-73
2023/05/17 02:25:10;;;;;;;18.08;6.80;;;8.70;95.50;;;;;;5100451;28;20382;-73
2023/05/17 02:27:36;;;;;;;19.67;8.00;;;8.70;95.50;;;;;;5094214;28;20382;-73
2023/05/17 02:30:03;;;;;;;22.40;8.05;;;8.60;96.00;;;;;;5094534;28;20386;-73
2023/05/17 02:32:29;;;;;;;23.88;8.30;;;8.60;96.60;;;;;;5093999;28;20900;-74
2023/05/17 02:34:55;;;;;;;18.33;9.13;;;8.60;96.80;;;;;;5094634;28;20720;-73
2023/05/17 02:37:20;;;;;;;22.60;8.20;;;8.60;97.60;;;;;;5094295;28;20443;-73
2023/05/17 02:39:46;;;;;;;32.13;10.60;;;8.60;98.50;;;;;;5093975;28;20415;-74
2023/05/17 02:42:12;;;;;;;26.90;9.67;;;8.50;98.40;;;;;;5093787;28;20469;-73
2023/05/17 02:44:37;;;;;;;17.67;9.37;;;8.50;99.50;;;;;;5094250;28;20542;-74
2023/05/17 02:47:03;;;;;;;21.87;9.50;;;8.50;99.80;;;;;;5093833;28;20382;-72
2023/05/17 02:49:29;;;;;;;23.27;8.88;;;8.50;99.50;;;;;;5094023;28;20386;-72
2023/05/17 02:51:55;;;;;;;26.38;8.60;;;8.50;99.90;;;;;;5093233;28;20397;-72
2023/05/17 02:54:20;;;;;;;25.75;9.02;;;8.40;99.90;;;;;;5092679;28;20493;-73
2023/05/17 02:56:46;;;;;;;25.83;9.18;;;8.40;99.90;;;;;;5092962;28;20396;-72
2023/05/17 02:59:11;;;;;;;22.77;9.63;;;8.40;99.90;;;;;;5093344;28;20394;-73
2023/05/17 03:01:37;;;;;;;26.27;9.37;;;8.30;99.90;;;;;;5092786;28;20390;-72
2023/05/17 03:04:02;;;;;;;22.57;8.80;;;8.30;99.90;;;;;;5093952;28;20750;-72
2023/05/17 03:06:28;;;;;;;22.23;9.40;;;8.30;99.90;;;;;;5093281;28;20889;-73
2023/05/17 03:08:53;;;;;;;25.47;9.67;;;8.30;99.90;;;;;;5096260;28;20447;-74
2023/05/17 03:11:19;;;;;;;28.10;8.70;;;8.20;99.90;;;;;;5094998;28;20401;-73
2023/05/17 03:13:51;;;;;;;23.77;8.80;;;8.30;99.90;;;;;;5095997;28;20400;-72
2023/05/17 03:16:17;;;;;;;27.30;10.05;;;8.40;99.90;;;;;;5096173;28;20392;-73
2023/05/17 03:18:43;;;;;;;25.65;9.80;;;8.40;99.90;;;;;;5098708;28;20382;-74
2023/05/17 03:21:08;;;;;;;24.08;10.30;;;8.40;99.90;;;;;;5098517;28;20876;-73
2023/05/17 03:23:34;;;;;;;25.33;11.57;;;8.30;99.90;;;;;;5096021;28;20382;-72
2023/05/17 03:26:00;;;;;;;26.07;10.37;;;8.40;99.90;;;;;;5078632;28;20408;-75
2023/05/17 03:28:25;;;;;;;24.63;10.50;;;8.40;99.90;;;;;;5099688;28;20393;-75
2023/05/17 03:30:51;;;;;;;34.77;11.83;;;8.50;99.90;;;;;;5100211;28;20442;-70
2023/05/17 03:33:18;;;;;;;33.23;12.93;;;8.40;99.90;;;;;;5108661;28;20390;-73
2023/05/17 03:35:45;;;;;;;27.70;12.40;;;8.30;99.90;;;;;;5103547;28;20859;-73
2023/05/17 03:38:11;;;;;;;32.78;12.70;;;8.10;99.90;;;;;;5106054;28;20385;-73
2023/05/17 03:40:36;;;;;;;36.78;13.15;;;7.90;99.90;;;;;;5108083;28;20401;-73
2023/05/17 03:43:02;;;;;;;32.00;13.10;;;7.90;99.90;;;;;;5108309;28;20427;-73
2023/05/17 03:45:28;;;;;;;31.40;13.70;;;7.80;99.90;;;;;;5112843;28;20369;-72
2023/05/17 03:47:53;;;;;;;29.63;13.50;;;7.90;99.90;;;;;;5104301;28;20493;-74
2023/05/17 03:50:19;;;;;;;33.07;13.60;;;8.30;99.90;;;;;;5093171;28;20417;-73
2023/05/17 03:52:45;;;;;;;25.77;13.33;;;8.70;99.90;;;;;;5074810;28;20476;-75
2023/05/17 03:55:10;;;;;;;29.90;13.37;;;8.80;99.90;;;;;;5093614;28;20854;-73
2023/05/17 03:57:36;;;;;;;31.53;12.93;;;9.00;99.90;;;;;;5093999;28;20393;-74
2023/05/17 04:00:05;;;;;;;33.75;15.55;;;9.20;96.80;;;;;;5094634;28;20433;-73
2023/05/17 04:02:31;;;;;;;37.97;14.65;;;9.30;95.60;;;;;;5093120;28;20374;-73
2023/05/17 04:04:56;;;;;;;27.73;15.27;;;9.30;93.60;;;;;;5093118;28;20874;-75
2023/05/17 04:07:22;;;;;;;27.07;14.30;;;9.40;91.40;;;;;;5092427;28;20434;-73
2023/05/17 04:09:47;;;;;;;29.47;13.70;;;9.40;90.40;;;;;;5092855;28;20418;-75
2023/05/17 04:12:13;;;;;;;30.57;13.97;;;9.30;91.20;;;;;;5092125;28;20386;-73
2023/05/17 04:14:39;;;;;;;33.83;13.17;;;9.30;92.50;;;;;;5092882;28;20736;-73
2023/05/17 04:17:05;;;;;;;30.40;14.15;;;9.30;93.20;;;;;;5092408;28;20397;-74
2023/05/17 04:19:30;;;;;;;29.95;13.20;;;9.30;93.60;;;;;;5092509;28;20402;-72
2023/05/17 04:21:56;;;;;;;27.77;12.52;;;9.40;92.90;;;;;;5091978;28;20473;-74
2023/05/17 04:24:22;;;;;;;22.50;12.60;;;9.40;92.40;;;;;;5092241;28;20378;-74
2023/05/17 04:26:47;;;;;;;32.22;14.30;;;9.50;92.50;;;;;;5092074;28;20398;-73
2023/05/17 04:29:13;;;;;;;30.25;14.35;;;9.50;91.80;;;;;;5092082;28;20388;-75
2023/05/17 04:31:38;;;;;;;29.45;14.13;;;9.60;90.80;;;;;;5091362;28;20389;-75
2023/05/17 04:34:04;;;;;;;28.17;14.83;;;9.60;92.80;;;;;;5091860;28;20382;-73
2023/05/17 04:36:29;;;;;;;27.67;14.00;;;9.70;90.00;;;;;;5092026;28;20433;-73
2023/05/17 04:38:56;;;;;;;33.93;13.20;;;9.80;88.20;;;;;;5091542;28;20382;-71
2023/05/17 04:41:22;;;;;;;28.88;14.05;;;9.80;88.80;;;;;;5091540;28;20385;-72
2023/05/17 04:43:48;;;;;;;30.17;13.18;;;9.80;89.00;;;;;;5092327;28;20369;-73
2023/05/17 04:46:13;;;;;;;33.70;13.52;;;9.80;88.40;;;;;;5091850;28;20378;-72
2023/05/17 04:48:39;;;;;;;27.73;12.68;;;9.80;89.80;;;;;;5073905;28;20720;-74
2023/05/17 04:51:05;;;;;;;27.73;13.50;;;9.70;90.90;;;;;;5090527;28;20382;-74
2023/05/17 04:53:31;;;;;;;33.83;13.60;;;9.70;90.30;;;;;;5092036;28;20450;-75
2023/05/17 04:55:57;;;;;;;34.63;13.98;;;9.60;92.00;;;;;;5091605;28;20386;-75
2023/05/17 04:58:23;;;;;;;28.27;13.27;;;9.60;92.80;;;;;;5092230;28;20382;-74
2023/05/17 05:00:49;;;;;;;34.93;13.80;;;9.60;94.00;;;;;;5073128;28;20408;-74
2023/05/17 05:03:14;;;;;;;30.20;14.00;;;9.70;95.20;;;;;;5090982;28;20743;-73
2023/05/17 05:05:40;;;;;;;34.53;13.88;;;9.80;92.60;;;;;;5073426;28;20512;-73
2023/05/17 05:08:05;;;;;;;28.40;13.77;;;9.80;92.80;;;;;;5091514;28;20382;-75
2023/05/17 05:10:31;;;;;;;33.05;14.20;;;9.90;93.40;;;;;;5091532;28;20378;-74
2023/05/17 05:12:57;;;;;;;37.28;14.35;;;10.00;91.20;;;;;;5090518;28;20420;-74
2023/05/17 05:15:23;;;;;;;30.40;15.25;;;10.00;91.10;;;;;;5073125;28;20431;-73
2023/05/17 05:17:48;;;;;;;39.10;15.10;;;10.00;92.00;;;;;;5091151;28;20384;-73
2023/05/17 05:20:14;;;;;;;39.70;15.20;;;10.10;92.20;;;;;;5091392;28;20409;-73
2023/05/17 05:22:40;;;;;;;36.80;15.23;;;10.10;91.50;;;;;;5090511;28;20382;-72
2023/05/17 05:25:06;;;;;;;34.80;15.80;;;10.10;91.10;;;;;;5090244;28;20386;-73
2023/05/17 05:27:34;;;;;;;42.23;18.90;;;10.10;92.20;;;;;;5072975;28;20477;-72
2023/05/17 05:30:00;;;;;;;39.00;19.58;;;10.30;92.90;;;;;;5072309;28;20402;-73
2023/05/17 05:32:25;;;;;;;40.83;19.83;;;10.30;90.90;;;;;;5090341;28;20397;-73
2023/05/17 05:34:51;;;;;;;51.78;25.13;;;10.40;91.20;;;;;;5090630;28;20397;-72
2023/05/17 05:37:18;;;;;;;56.65;26.58;;;10.40;89.30;;;;;;5072375;28;20389;-73
2023/05/17 05:39:44;;;;;;;64.05;28.50;;;10.30;89.90;;;;;;5091035;28;20923;-73
2023/05/17 05:42:10;;;;;;;58.28;26.58;;;10.30;88.50;;;;;;5090503;28;20378;-74
2023/05/17 05:44:35;;;;;;;55.45;25.50;;;10.30;87.40;;;;;;5092071;28;20378;-72
2023/05/17 05:47:01;;;;;;;45.60;24.05;;;10.40;87.00;;;;;;5090965;28;20366;-73
2023/05/17 05:49:26;;;;;;;53.85;23.52;;;10.50;86.80;;;;;;5091513;28;20447;-74
2023/05/17 05:51:52;;;;;;;52.83;22.40;;;10.60;84.70;;;;;;5090398;28;20385;-73
2023/05/17 05:54:17;;;;;;;45.60;19.60;;;10.60;83.70;;;;;;5090915;28;20768;-74
2023/05/17 05:56:43;;;;;;;46.03;20.67;;;10.60;82.40;;;;;;5090760;28;20416;-74
2023/05/17 05:59:08;;;;;;;50.47;21.30;;;10.50;83.50;;;;;;5090269;28;21190;-74
2023/05/17 06:01:34;;;;;;;42.07;19.80;;;10.60;84.90;;;;;;5090004;28;20855;-75
2023/05/17 06:04:12;;;;;;;42.13;18.87;;;10.70;83.00;;;;;;5091045;28;20456;-73
2023/05/17 06:06:37;;;;;;;44.70;17.50;;;10.70;82.50;;;;;;5072608;28;20393;-74
2023/05/17 06:09:05;;;;;;;41.63;19.00;;;10.90;81.00;;;;;;5090694;28;20382;-75
2023/05/17 06:11:31;;;;;;;40.42;17.33;;;11.10;80.90;;;;;;5090097;28;20794;-74
2023/05/17 06:13:56;;;;;;;44.90;15.75;;;11.30;75.10;;;;;;5090915;28;20421;-73
2023/05/17 06:16:22;;;;;;;37.97;15.38;;;11.20;72.20;;;;;;5090408;28;20381;-73
2023/05/17 06:18:47;;;;;;;31.88;14.10;;;11.30;69.20;;;;;;5091275;28;20386;-74
2023/05/17 06:21:15;;;;;;;38.93;14.70;;;11.50;66.10;;;;;;5090651;28;20402;-73
2023/05/17 06:23:40;;;;;;;40.40;15.18;;;11.60;67.90;;;;;;5073393;28;20871;-75
2023/05/17 06:26:09;;;;;;;35.05;14.45;;;11.60;67.90;;;;;;5091080;28;20422;-73
2023/05/17 06:28:35;;;;;;;33.83;11.38;;;11.50;67.30;;;;;;5091383;28;20382;-73
2023/05/17 06:31:00;;;;;;;31.50;9.70;;;11.40;58.60;;;;;;5106418;28;20666;-73
2023/05/17 06:33:26;;;;;;;21.37;6.43;;;11.40;55.60;;;;;;5097283;28;20453;-73
2023/05/17 06:35:52;;;;;;;20.67;6.57;;;11.30;47.50;;;;;;5108115;28;20737;-75
2023/05/17 06:38:17;;;;;;;19.10;5.07;;;11.30;45.90;;;;;;5094722;28;20747;-72
2023/05/17 06:40:43;;;;;;;18.30;4.80;;;11.40;40.60;;;;;;5093706;28;20431;-74
2023/05/17 06:43:08;;;;;;;20.70;5.17;;;11.50;40.80;;;;;;5093499;28;20397;-71
2023/05/17 06:45:34;;;;;;;21.60;4.80;;;11.60;37.70;;;;;;5093636;28;20417;-73
2023/05/17 06:47:59;;;;;;;23.17;4.78;;;11.50;35.40;;;;;;5093935;28;20417;-72
2023/05/17 06:50:27;;;;;;;17.75;4.40;;;11.60;34.70;;;;;;5093955;28;20439;-72
2023/05/17 06:52:52;;;;;;;16.80;4.13;;;11.90;33.90;;;;;;5075520;28;20386;-72
2023/05/17 06:55:18;;;;;;;17.15;3.83;;;12.10;31.50;;;;;;5093855;28;20465;-73
2023/05/17 06:57:44;;;;;;;16.23;3.85;;;12.10;28.40;;;;;;5093766;28;20415;-73
2023/05/17 07:00:10;;;;;;;16.77;3.83;;;12.10;28.50;;;;;;5094320;28;20747;-73
2023/05/17 07:02:36;;;;;;;19.65;4.45;;;12.00;29.20;;;;;;5093030;28;20388;-72
2023/05/17 07:05:04;;;;;;;17.48;3.70;;;12.20;29.20;;;;;;5093235;28;20461;-74
2023/05/17 07:07:30;;;;;;;16.70;4.13;;;12.30;25.50;;;;;;5093514;28;20378;-73
2023/05/17 07:09:56;;;;;;;13.03;2.90;;;12.40;24.40;;;;;;5093547;28;20386;-73
2023/05/17 07:12:21;;;;;;;12.00;3.20;;;12.30;22.90;;;;;;5093359;28;20397;-72
2023/05/17 07:14:47;;;;;;;19.10;3.77;;;12.40;23.30;;;;;;5093806;28;20374;-74
2023/05/17 07:17:12;;;;;;;14.73;3.60;;;12.50;22.00;;;;;;5075246;28;20389;-71
2023/05/17 07:19:38;;;;;;;15.82;4.05;;;12.60;22.80;;;;;;5093322;28;20452;-73
2023/05/17 07:22:04;;;;;;;17.17;3.55;;;12.70;24.20;;;;;;5093502;28;20819;-73
2023/05/17 07:24:29;;;;;;;17.67;3.60;;;12.60;23.50;;;;;;5098001;28;20685;-74
2023/05/17 07:26:55;;;;;;;12.90;2.83;;;12.80;23.10;;;;;;5099023;28;20393;-73
2023/05/17 07:29:20;;;;;;;13.35;3.38;;;12.60;22.80;;;;;;5100200;28;20382;-73
2023/05/17 07:31:46;;;;;;;12.02;3.15;;;12.50;24.50;;;;;;5099365;28;20917;-74
2023/05/17 07:34:12;;;;;;;16.42;3.53;;;12.30;24.90;;;;;;5100528;28;20385;-75
2023/05/17 07:36:38;;;;;;;15.52;3.20;;;12.30;25.70;;;;;;5097896;28;20382;-74
2023/05/17 07:39:04;;;;;;;22.97;5.07;;;12.30;24.70;;;;;;5095197;28;20389;-75
2023/05/17 07:41:30;;;;;;;13.17;3.30;;;12.30;25.20;;;;;;5092668;28;20405;-72
2023/05/17 07:43:56;;;;;;;14.57;3.80;;;12.40;25.20;;;;;;5092251;28;20424;-72
2023/05/17 07:46:21;;;;;;;17.00;4.60;;;12.50;26.10;;;;;;5093606;28;20390;-73
2023/05/17 07:48:47;;;;;;;14.07;3.93;;;12.80;25.70;;;;;;5106310;28;20400;-74
2023/05/17 07:51:12;;;;;;;15.88;4.20;;;12.90;25.20;;;;;;5105565;28;20410;-74
2023/05/17 07:53:38;;;;;;;14.82;3.65;;;13.10;25.10;;;;;;5094583;28;20427;-73
2023/05/17 07:56:04;;;;;;;18.70;3.58;;;13.10;24.30;;;;;;5076783;28;20386;-73
2023/05/17 07:58:29;;;;;;;15.18;3.33;;;13.00;22.40;;;;;;5093452;28;20393;-73
2023/05/17 08:00:55;;;;;;;15.32;4.20;;;12.80;21.50;;;;;;5092895;28;20482;-72
2023/05/17 08:03:21;;;;;;;18.67;4.40;;;12.80;23.00;;;;;;5076210;28;20477;-73
2023/05/17 08:05:46;;;;;;;16.98;4.30;;;12.90;22.10;;;;;;5095397;28;20455;-73
2023/05/17 08:08:12;;;;;;;19.88;3.90;;;13.20;21.60;;;;;;5094674;28;20411;-75
2023/05/17 08:10:38;;;;;;;17.67;3.92;;;13.40;21.60;;;;;;5092638;28;20393;-72
2023/05/17 08:13:05;;;;;;;12.90;3.03;;;13.80;19.40;;;;;;5091735;28;20410;-73
2023/05/17 08:15:30;;;;;;;13.25;3.35;;;13.60;17.70;;;;;;5091904;28;20462;-73
2023/05/17 08:17:56;;;;;;;15.30;4.30;;;13.10;18.50;;;;;;5092153;28;20443;-74
2023/05/17 08:20:21;;;;;;;19.17;3.90;;;13.40;18.80;;;;;;5091873;28;20398;-73
2023/05/17 08:22:47;;;;;;;17.20;3.23;;;13.70;19.50;;;;;;5091567;28;20374;-73
2023/05/17 08:25:12;;;;;;;17.97;4.00;;;13.80;18.60;;;;;;5074017;28;20388;-73
2023/05/17 08:27:38;;;;;;;17.03;3.10;;;13.90;19.30;;;;;;5091832;28;20425;-73
2023/05/17 08:30:04;;;;;;;18.67;3.67;;;14.10;17.50;;;;;;5094792;28;20386;-74
2023/05/17 08:32:30;;;;;;;13.10;3.58;;;14.00;18.30;;;;;;5096409;28;20397;-74
2023/05/17 08:34:56;;;;;;;12.90;3.93;;;13.90;17.30;;;;;;5095883;28;20381;-75
2023/05/17 08:37:22;;;;;;;15.98;3.30;;;14.00;18.20;;;;;;5096455;28;20473;-74
2023/05/17 08:39:48;;;;;;;18.10;3.42;;;14.30;17.60;;;;;;5096223;28;20764;-73
2023/05/17 08:42:17;;;;;;;16.90;3.70;;;14.20;17.80;;;;;;5077491;28;20391;-73
2023/05/17 08:44:43;;;;;;;19.55;5.15;;;14.30;18.30;;;;;;5096943;28;20390;-73
2023/05/17 08:47:10;;;;;;;20.67;4.83;;;14.40;18.40;;;;;;5079610;28;20828;-72
2023/05/17 08:49:37;;;;;;;22.90;5.32;;;14.20;19.70;;;;;;5100532;28;20397;-73
2023/05/17 08:52:08;;;;;;;19.67;4.60;;;14.00;19.70;;;;;;5100407;28;20425;-74
2023/05/17 08:54:37;;;;;;;23.73;4.30;;;14.00;20.70;;;;;;5097280;28;20386;-75
2023/05/17 08:57:05;;;;;;;16.02;4.03;;;14.00;20.40;;;;;;5098403;28;20382;-73
2023/05/17 08:59:33;;;;;;;14.35;4.10;;;13.90;19.80;;;;;;5098183;28;20413;-73
2023/05/17 09:02:00;;;;;;;15.23;4.05;;;13.70;19.20;;;;;;5097728;28;20378;-74
2023/05/17 09:04:27;;;;;;;18.90;4.85;;;13.80;19.90;;;;;;5096209;28;20399;-73
2023/05/17 09:06:53;;;;;;;18.13;5.18;;;14.10;19.50;;;;;;5096407;28;20431;-73
2023/05/17 09:09:19;;;;;;;16.03;4.60;;;14.10;19.00;;;;;;5097115;28;20388;-72
2023/05/17 09:11:44;;;;;;;14.13;4.40;;;13.90;19.20;;;;;;5095994;28;21060;-73
2023/05/17 09:14:10;;;;;;;16.77;4.37;;;13.90;20.00;;;;;;5096358;28;20424;-74
2023/05/17 09:16:36;;;;;;;16.60;3.90;;;13.40;20.50;;;;;;5095324;28;20409;-72
2023/05/17 09:19:07;;;;;;;21.13;5.03;;;13.20;21.50;;;;;;5094677;28;20811;-75
2023/05/17 09:21:34;;;;;;;20.80;4.40;;;13.40;21.90;;;;;;5099389;28;20382;-73
2023/05/17 09:24:00;;;;;;;14.40;3.97;;;13.70;21.00;;;;;;5100814;28;20406;-74
2023/05/17 09:26:38;;;;;;;21.10;4.80;;;13.40;18.10;;;;;;5078195;22;20438;-73
2023/05/17 09:29:10;;;;;;;17.57;4.67;;;13.20;19.20;;;;;;5051345;28;20382;-74
2023/05/17 09:31:36;;;;;;;15.00;4.60;;;13.50;20.00;;;;;;5053135;28;20726;-74
2023/05/17 09:34:01;;;;;;;12.00;4.67;;;13.90;18.80;;;;;;5056256;28;20507;-74
2023/05/17 09:36:27;;;;;;;11.87;3.60;;;14.20;17.60;;;;;;5057148;28;20420;-74
2023/05/17 09:39:04;;;;;;;18.03;4.80;;;14.20;17.70;;;;;;5055198;28;20392;-74
2023/05/17 09:41:31;;;;;;;19.38;4.88;;;14.40;17.60;;;;;;5050236;28;20396;-73
2023/05/17 09:44:00;;;;;;;16.92;4.88;;;14.30;17.90;;;;;;5050992;28;20746;-73
2023/05/17 09:46:26;;;;;;;14.85;4.40;;;14.00;18.30;;;;;;5032632;28;20378;-73
2023/05/17 09:48:55;;;;;;;16.75;4.75;;;13.90;18.60;;;;;;5050984;28;20469;-73
2023/05/17 09:51:41;;;;;;;17.50;4.70;;;14.00;18.70;;;;;;5050193;28;20378;-74
2023/05/17 09:54:07;;;;;;;16.55;4.68;;;14.30;18.50;;;;;;5050803;28;20483;-73
2023/05/17 09:56:33;;;;;;;13.90;4.80;;;14.20;19.60;;;;;;5050150;28;20443;-73
2023/05/17 09:59:19;;;;;;;14.40;5.13;;;14.40;19.40;;;;;;5050585;28;20385;-74
2023/05/17 10:01:49;;;;;;;24.52;6.28;;;14.40;18.90;;;;;;5048274;28;20783;-74
2023/05/17 10:04:19;;;;;;;11.75;5.00;;;14.40;20.10;;;;;;5050661;28;20406;-74
2023/05/17 10:06:45;;;;;;;24.03;5.13;;;14.10;19.50;;;;;;5053104;28;20384;-73
2023/05/17 10:09:14;;;;;;;17.95;5.00;;;14.20;19.30;;;;;;5053850;28;20373;-75
2023/05/17 10:11:44;;;;;;;14.07;4.80;;;14.10;18.10;;;;;;5053607;28;20377;-74
2023/05/17 10:14:12;;;;;;;12.38;3.78;;;13.90;18.30;;;;;;5054495;28;20465;-73
2023/05/17 10:16:38;;;;;;;16.02;4.80;;;14.10;17.30;;;;;;5054198;28;20396;-74
2023/05/17 10:19:04;;;;;;;14.77;4.00;;;14.20;17.80;;;;;;5054010;28;20776;-74
2023/05/17 10:21:31;;;;;;;16.17;3.22;;;13.90;17.00;;;;;;5053736;28;20438;-74
2023/05/17 10:24:02;;;;;;;14.05;4.03;;;13.30;17.10;;;;;;5053847;28;20388;-74
2023/05/17 10:26:28;;;;;;;12.55;4.72;;;13.30;18.50;;;;;;5053142;28;20393;-74
2023/05/17 10:28:59;;;;;;;11.37;4.50;;;13.70;18.70;;;;;;5053491;28;20392;-73
2023/05/17 10:31:32;;;;;;;14.95;4.40;;;13.60;17.40;;;;;;5053166;28;20381;-74
2023/05/17 10:34:01;;;;;;;17.85;4.57;;;13.90;17.30;;;;;;5053918;28;20381;-74
2023/05/17 10:36:27;;;;;;;11.23;3.70;;;14.20;16.10;;;;;;5053526;28;20396;-74
2023/05/17 10:38:54;;;;;;;11.82;4.80;;;14.30;14.40;;;;;;5053573;28;20797;-73
2023/05/17 10:41:23;;;;;;;18.40;4.57;;;14.40;15.00;;;;;;5052627;28;20782;-71
2023/05/17 10:43:49;;;;;;;16.20;3.97;;;14.90;15.10;;;;;;5053520;28;20385;-73
2023/05/17 10:46:16;;;;;;;15.45;3.90;;;15.00;14.80;;;;;;5053029;28;20486;-74
2023/05/17 10:48:43;;;;;;;14.80;4.20;;;14.70;15.60;;;;;;5053677;28;20393;-74
2023/05/17 10:51:10;;;;;;;17.73;4.70;;;14.50;15.60;;;;;;5052668;28;20381;-73
2023/05/17 10:54:07;;;;;;;15.52;4.50;;;14.50;15.80;;;;;;5053974;28;20381;-74
2023/05/17 10:56:33;;;;;;;18.90;4.30;;;14.80;16.00;;;;;;5053571;28;20880;-74
2023/05/17 10:59:22;;;;;;;13.57;4.10;;;14.90;15.50;;;;;;5053132;28;20408;-74
2023/05/17 11:01:58;;;;;;;16.77;4.55;;;14.40;15.80;;;;;;5052337;28;20979;-74
2023/05/17 11:04:33;;;;;;;14.77;4.93;;;14.50;16.80;;;;;;5035200;28;20413;-74
2023/05/17 11:07:20;;;;;;;15.13;4.47;;;14.90;16.90;;;;;;5052418;28;20404;-74
2023/05/17 11:09:55;;;;;;;14.70;4.10;;;14.80;16.00;;;;;;5035113;28;20392;-72
2023/05/17 11:12:54;;;;;;;9.63;3.88;;;15.10;14.90;;;;;;5051974;28;20463;-73
2023/05/17 11:15:24;;;;;;;12.93;4.15;;;14.80;15.00;;;;;;5008822;28;20401;-74
2023/05/17 11:17:55;;;;;;;15.40;4.45;;;15.00;14.10;;;;;;5053047;28;20389;-74
2023/05/17 11:20:26;;;;;;;11.25;4.10;;;14.60;14.40;;;;;;5052697;28;20417;-75
2023/05/17 11:23:06;;;;;;;11.55;4.43;;;15.10;15.00;;;;;;5052791;28;20388;-75
2023/05/17 11:25:34;;;;;;;14.82;4.60;;;15.10;14.30;;;;;;5053924;28;20378;-74
2023/05/17 11:28:06;;;;;;;10.17;3.67;;;15.00;13.20;;;;;;5035536;28;20527;-74
2023/05/17 11:30:32;;;;;;;13.45;4.05;;;14.70;13.70;;;;;;5052603;28;20385;-74
2023/05/17 11:33:03;;;;;;;12.50;4.00;;;14.80;14.50;;;;;;5052183;28;20389;-75
2023/05/17 11:35:32;;;;;;;11.13;4.50;;;15.10;14.70;;;;;;5053602;28;20876;-73
2023/05/17 11:38:18;;;;;;;14.10;4.60;;;15.30;14.50;;;;;;5018338;28;20929;-74
2023/05/17 11:40:46;;;;;;;10.90;4.00;;;15.50;12.80;;;;;;5052681;28;20401;-74
2023/05/17 11:43:22;;;;;;;17.90;4.50;;;15.80;12.90;;;;;;5052032;28;20525;-74
2023/05/17 11:45:53;;;;;;;6.55;3.95;;;16.00;11.30;;;;;;5052527;28;20381;-74
2023/05/17 11:48:23;;;;;;;8.13;3.70;;;15.50;12.20;;;;;;5053021;28;20894;-74
2023/05/17 11:50:51;;;;;;;15.15;4.57;;;15.60;12.70;;;;;;5052183;28;20435;-74
2023/05/17 11:53:17;;;;;;;12.30;4.15;;;15.50;12.70;;;;;;5052324;28;20469;-73
2023/05/17 11:55:49;;;;;;;12.52;4.03;;;15.80;12.60;;;;;;5052382;28;20390;-73
2023/05/17 11:58:18;;;;;;;9.65;3.88;;;15.80;11.90;;;;;;5034497;28;20401;-74
2023/05/17 12:00:44;;;;;;;12.63;3.90;;;16.10;12.50;;;;;;5052178;28;20901;-73
2023/05/17 12:03:21;;;;;;;10.52;3.90;;;15.80;12.10;;;;;;5051498;28;20385;-73
2023/05/17 12:05:49;;;;;;;8.50;3.58;;;15.60;12.20;;;;;;5052275;28;20378;-74
2023/05/17 12:08:19;;;;;;;14.60;4.53;;;15.50;10.70;;;;;;5052207;28;20378;-73
2023/05/17 12:10:55;;;;;;;17.75;4.13;;;15.50;12.60;;;;;;5052245;28;20443;-73
2023/05/17 12:13:21;;;;;;;15.20;4.75;;;15.60;12.30;;;;;;5051780;28;20719;-74
2023/05/17 12:16:21;;;;;;;10.80;4.17;;;15.80;11.80;;;;;;5051966;28;20476;-74
2023/05/17 12:18:48;;;;;;;13.27;4.20;;;15.90;12.10;;;;;;5047953;28;20402;-74
2023/05/17 12:21:15;;;;;;;14.82;5.00;;;15.90;12.10;;;;;;5051072;28;20405;-74
2023/05/17 12:23:42;;;;;;;17.95;4.30;;;15.70;12.70;;;;;;5051836;28;20378;-74
2023/05/17 12:26:13;;;;;;;12.93;3.80;;;15.70;12.20;;;;;;5051563;28;20754;-74
2023/05/17 12:28:40;;;;;;;10.45;4.00;;;15.80;12.30;;;;;;5051132;28;20428;-74
2023/05/17 12:31:11;;;;;;;10.02;4.20;;;15.40;12.50;;;;;;5051783;28;20417;-75
2023/05/17 12:33:41;;;;;;;9.52;3.92;;;15.50;12.80;;;;;;5051458;28;20852;-74
2023/05/17 12:36:11;;;;;;;13.43;4.32;;;15.40;12.90;;;;;;5051488;28;20389;-75
2023/05/17 12:38:39;;;;;;;17.65;4.85;;;15.70;12.80;;;;;;5051386;28;20385;-75
2023/05/17 12:41:07;;;;;;;11.07;3.85;;;15.90;12.40;;;;;;5050994;28;20882;-75